Aérodrome :
LOGIN :

S'inscrire | Disclaimer

   EN    FR    IT 

 










Légende :    VFR   VFR Marginal   IFR   IFR Intensif   IFR Très Intensif
Visi : 
Plafond : 
>= 8 km
>= 3000ft
5 à 8 km
1000 à 3000 ft
1500m à 5 km
500 à 1000 ft
800 à 1500m
200 à 500 ft
< 800m
< 200 ft
Symboles :   Orages  Brouillard  Fortes neiges  Fortes précipitations  Vent > 20 kt
SIGMETs :   Divers  Orages  Givrage  Turbulence  Onde Orograph.  Cendres Volcan.






- Altitude de l'aérodrome : 423 ft
- Code IATA : PIS


LFBI - Poitiers

DERNIER METAR :
  • 140030Z AUTO 20009KT CAVOK 04/04 Q0996 TEMPO 22015G25KT 4000 SHRA SCT010 BKN020TCU

METARs EXPIRÉS :
  • 140000Z AUTO 19009KT 9999 FEW008/// SCT058/// BKN072/// ///CB 04/04 Q0996 TEMPO 22015G25KT 4000 SHRA
  • 132330Z AUTO 19007KT 9999 -SNRA BKN036/// OVC042/// ///CB 04/04 Q0997 TEMPO 22015G25KT 4000 SHRA
  • 132300Z AUTO 25005KT 200V280 4600 -SNRA BR OVC029/// ///CB 04/04 Q0997 BECMG CAVOK
  • 132230Z AUTO 28013KT 250V310 5000 +SNRA BR SCT010/// BKN016/// BKN024/// ///CB 05/03 Q0997 BECMG NSW NSC
  • 132200Z AUTO 18016KT 9999 -RA BKN013/// OVC045/// ///CB 07/06 Q0996 TEMPO 21015G25KT 3000 SHRA BECMG NSC

TAF TAF LFBI
Valide du 14 à 00h jusqu'au 15 à 00h UTC


132300Z 1400/1424 22010KT 9999 SCT030
TEMPO 1400/1404 22015G25KT 4000 SHRA SCT010 BKN020TCU
TEMPO 1415/1417 4000 SHRA BKN030TCU
BECMG 1415/1417 VRB02KT
PROB30 1421/1424 3000 BR



MET'MAP, la Météo Aéronautique d'un coup d'oeil ! - Copyright ORBIFLY Décembre 2007 - Disclaimer

ORBIFLY MET'MAP TEAM :

Programmation & Développement : Alexandra Zaïnal
Conception & Développement : Baudouin d'Aumeries
Co-Programmation & Développement : Marc-Olivier Méhu
Soutien technique & logistique : Manuel Goepfert

Contact : metmap@orbifly.com




SOURCES & CREDITS :

   NOAA